This is the latest recevied weather packets stored in our database for station/object NC4J. If no packets are shown the sender has not sent any weather packets the latest 10 day(s).
| Time | Temp. | Humidity | Pressure | Rain* | Wind** | Luminosity | Snow |
|---|---|---|---|---|---|---|---|
| 1778108306 | 17.78° C | 95% | 1014.6 hPa | 0 mm | - | 4 W/m² | - |
| 1778108004 | 17.78° C | 95% | 1014.1 hPa | 0 mm | - | 4 W/m² | - |
| 1778107701 | 17.78° C | 95% | 1013.8 hPa | 1.27 mm | - | 4 W/m² | - |
| 1778107398 | 17.78° C | 95% | 1013.6 hPa | 1.27 mm | - | 9 W/m² | - |
| 1778107094 | 17.78° C | 95% | 1014.1 hPa | 0 mm | - | 9 W/m² | - |
| 1778106789 | 17.78° C | 95% | 1014 hPa | 0 mm | - | 11 W/m² | - |
| 1778106487 | 17.78° C | 95% | 1014.2 hPa | 0 mm | - | 21 W/m² | - |
| 1778106182 | 17.78° C | 95% | 1014 hPa | 1.78 mm | - | 33 W/m² | - |
| 1778105880 | 17.78° C | 95% | 1014 hPa | 3.05 mm | - | 38 W/m² | - |
| 1778105578 | 17.78° C | 94% | 1013.9 hPa | 4.83 mm | - | 22 W/m² | - |
| 1778105276 | 17.78° C | 94% | 1013.8 hPa | 6.6 mm | - | 35 W/m² | - |
| 1778104976 | 17.78° C | 93% | 1013.8 hPa | 4.32 mm | - | 15 W/m² | - |
| 1778104673 | 17.78° C | 93% | 1014.6 hPa | 1.27 mm | - | 10 W/m² | - |
| 1778104369 | 18.33° C | 92% | 1014.4 hPa | 1.78 mm | - | 9 W/m² | - |
| 1778104065 | 18.33° C | 91% | 1014.5 hPa | 1.78 mm | - | 13 W/m² | - |
| 1778103762 | 18.33° C | 91% | 1014.7 hPa | 0 mm | - | 11 W/m² | - |
| 1778103461 | 18.33° C | 90% | 1014.6 hPa | 0 mm | - | 14 W/m² | - |
| 1778103157 | 18.89° C | 90% | 1014.5 hPa | 0 mm | - | 13 W/m² | - |
| 1778102855 | 18.89° C | 88% | 1014.4 hPa | 0 mm | - | 12 W/m² | - |
| 1778102550 | 19.44° C | 86% | 1014.4 hPa | 0 mm | - | 12 W/m² | - |
| 1778102245 | 19.44° C | 85% | 1014.4 hPa | 0 mm | - | 13 W/m² | - |
| 1778101942 | 20° C | 83% | 1014.6 hPa | 0 mm | - | 17 W/m² | - |
| 1778101639 | 20° C | 80% | 1014.1 hPa | 0 mm | - | 19 W/m² | - |
| 1778101336 | 20° C | 79% | 1014.2 hPa | 0 mm | - | 24 W/m² | - |
| 1778101033 | 20.56° C | 78% | 1014.5 hPa | 0 mm | - | 33 W/m² | - |
* Rain latest hour (hover to see other rain measurements)
** Current wind speed in m/s (hover to see current wind gust speed)